Almond, New York
Current Conditions -  °F | °C
As of 7:54 AM on Friday 24 Oct 2014 (Local Time) from KDSV Reporting Station
Clear Clear  
Wind Chill:   Ceiling: Unl
Heat Index:   Visibility: 10mi
Dew Point:   Wind: 3mph
Humidity: 82%   Direction: 280°W
Pressure: 30.03"   Gusts: NA
Location:  42.32°N, 77.74°W
Report Text: KDSV 241154Z AUTO 28003KT 10SM CLR 07/04 A3003 RMK AO2 SLP179 T00670039 10106 20067 53006
Loading
Personal Weather Stations






























Interactive Weather Map
Tropical Storm Tracking
New forecast layout! Learn more

10-Day Weather Forecast

Advertisements
Track Severe Weather on mobile